Terminal Aerodrome Forecast
Issued by NWS

Current Version | Previous Version | Text Only | Print | Product List | Glossary Off
Versions: 1 2 3 4 5 6 7 8 9 10 11 12 13 14 15 16 17 18 19 20 21 22 23 24 25

000
FTUS41 KRLX 180212 AAB
TAFCKB
TAF AMD
KCKB 180212Z 1802/1824 22008KT P6SM SCT025 OVC035
      TEMPO 1804/1808 BKN025
     FM180800 25008G16KT P6SM OVC015
     FM182000 27007KT P6SM BKN015=

USA.gov is the U.S. government's official web portal to all federal, state and local government web resources and services.